sensor_id;sensor_type;location;lat;lon;timestamp;temperature;humidity
64987;DHT22;67903;52.108;9.358;2023-10-31T00:02:15;11.50;99.90
64987;DHT22;67903;52.108;9.358;2023-10-31T00:05:01;11.50;99.90
64987;DHT22;67903;52.108;9.358;2023-10-31T00:07:47;11.50;99.90
64987;DHT22;67903;52.108;9.358;2023-10-31T00:10:33;11.60;99.90
64987;DHT22;67903;52.108;9.358;2023-10-31T00:13:19;11.60;99.90
64987;DHT22;67903;52.108;9.358;2023-10-31T00:16:05;11.60;99.90
64987;DHT22;67903;52.108;9.358;2023-10-31T00:18:50;11.70;99.90
64987;DHT22;67903;52.108;9.358;2023-10-31T00:21:36;11.70;99.90
64987;DHT22;67903;52.108;9.358;2023-10-31T00:24:22;11.70;99.90
64987;DHT22;67903;52.108;9.358;2023-10-31T00:27:07;11.70;99.90
64987;DHT22;67903;52.108;9.358;2023-10-31T00:29:53;11.70;99.90
64987;DHT22;67903;52.108;9.358;2023-10-31T00:32:38;11.70;99.90
64987;DHT22;67903;52.108;9.358;2023-10-31T00:35:24;11.70;99.60
64987;DHT22;67903;52.108;9.358;2023-10-31T00:38:09;11.70;99.50
64987;DHT22;67903;52.108;9.358;2023-10-31T00:40:56;11.70;99.40
64987;DHT22;67903;52.108;9.358;2023-10-31T00:43:41;11.80;99.20
64987;DHT22;67903;52.108;9.358;2023-10-31T00:46:27;11.80;99.50
64987;DHT22;67903;52.108;9.358;2023-10-31T00:49:12;11.80;99.20
64987;DHT22;67903;52.108;9.358;2023-10-31T00:51:58;11.90;98.80
64987;DHT22;67903;52.108;9.358;2023-10-31T00:54:43;11.90;99.10
64987;DHT22;67903;52.108;9.358;2023-10-31T00:57:29;11.90;99.10
64987;DHT22;67903;52.108;9.358;2023-10-31T01:00:16;11.80;98.90
64987;DHT22;67903;52.108;9.358;2023-10-31T01:03:01;11.80;99.20
64987;DHT22;67903;52.108;9.358;2023-10-31T01:05:47;11.90;98.80
64987;DHT22;67903;52.108;9.358;2023-10-31T01:08:32;11.90;98.50
64987;DHT22;67903;52.108;9.358;2023-10-31T01:11:18;11.90;98.50
64987;DHT22;67903;52.108;9.358;2023-10-31T01:14:04;11.90;98.70
64987;DHT22;67903;52.108;9.358;2023-10-31T01:16:49;11.90;98.70
64987;DHT22;67903;52.108;9.358;2023-10-31T01:19:35;11.90;98.50
64987;DHT22;67903;52.108;9.358;2023-10-31T01:22:21;11.90;98.60
64987;DHT22;67903;52.108;9.358;2023-10-31T01:25:07;11.90;98.60
64987;DHT22;67903;52.108;9.358;2023-10-31T01:27:53;11.90;98.20
64987;DHT22;67903;52.108;9.358;2023-10-31T01:30:39;11.90;98.40
64987;DHT22;67903;52.108;9.358;2023-10-31T01:33:24;11.90;98.50
64987;DHT22;67903;52.108;9.358;2023-10-31T01:36:10;11.90;98.60
64987;DHT22;67903;52.108;9.358;2023-10-31T01:38:57;11.90;98.60
64987;DHT22;67903;52.108;9.358;2023-10-31T01:41:45;11.90;98.50
64987;DHT22;67903;52.108;9.358;2023-10-31T01:44:30;11.90;98.70
64987;DHT22;67903;52.108;9.358;2023-10-31T01:47:16;11.80;99.10
64987;DHT22;67903;52.108;9.358;2023-10-31T01:50:02;11.90;99.80
64987;DHT22;67903;52.108;9.358;2023-10-31T01:52:48;11.90;99.90
64987;DHT22;67903;52.108;9.358;2023-10-31T01:55:33;11.80;99.90
64987;DHT22;67903;52.108;9.358;2023-10-31T01:58:25;11.70;99.90
64987;DHT22;67903;52.108;9.358;2023-10-31T02:01:11;11.70;99.90
64987;DHT22;67903;52.108;9.358;2023-10-31T02:03:57;11.80;99.90
64987;DHT22;67903;52.108;9.358;2023-10-31T02:06:44;11.70;99.90
64987;DHT22;67903;52.108;9.358;2023-10-31T02:09:29;11.70;99.90
64987;DHT22;67903;52.108;9.358;2023-10-31T02:12:35;11.70;99.90
64987;DHT22;67903;52.108;9.358;2023-10-31T02:15:21;11.70;99.90
64987;DHT22;67903;52.108;9.358;2023-10-31T02:18:08;11.70;99.90
64987;DHT22;67903;52.108;9.358;2023-10-31T02:20:56;11.70;99.90
64987;DHT22;67903;52.108;9.358;2023-10-31T02:23:41;11.80;99.90
64987;DHT22;67903;52.108;9.358;2023-10-31T02:26:31;11.90;99.30
64987;DHT22;67903;52.108;9.358;2023-10-31T02:29:17;12.00;98.60
64987;DHT22;67903;52.108;9.358;2023-10-31T02:32:02;12.00;98.20
64987;DHT22;67903;52.108;9.358;2023-10-31T02:34:49;12.00;98.20
64987;DHT22;67903;52.108;9.358;2023-10-31T02:37:34;12.00;98.30
64987;DHT22;67903;52.108;9.358;2023-10-31T02:40:20;12.20;97.10
64987;DHT22;67903;52.108;9.358;2023-10-31T02:43:06;12.20;96.90
64987;DHT22;67903;52.108;9.358;2023-10-31T02:45:52;12.30;96.00
64987;DHT22;67903;52.108;9.358;2023-10-31T02:48:38;12.50;93.20
64987;DHT22;67903;52.108;9.358;2023-10-31T02:51:24;12.30;90.00
64987;DHT22;67903;52.108;9.358;2023-10-31T02:54:10;12.20;88.70
64987;DHT22;67903;52.108;9.358;2023-10-31T02:56:58;12.00;88.50
64987;DHT22;67903;52.108;9.358;2023-10-31T02:59:43;11.90;88.80
64987;DHT22;67903;52.108;9.358;2023-10-31T03:02:29;11.80;87.60
64987;DHT22;67903;52.108;9.358;2023-10-31T03:05:15;11.70;87.20
64987;DHT22;67903;52.108;9.358;2023-10-31T03:08:02;11.70;87.30
64987;DHT22;67903;52.108;9.358;2023-10-31T03:10:48;11.50;86.80
64987;DHT22;67903;52.108;9.358;2023-10-31T03:13:35;11.70;85.30
64987;DHT22;67903;52.108;9.358;2023-10-31T03:16:22;11.50;85.00
64987;DHT22;67903;52.108;9.358;2023-10-31T03:19:08;11.50;85.50
64987;DHT22;67903;52.108;9.358;2023-10-31T03:21:53;11.50;84.80
64987;DHT22;67903;52.108;9.358;2023-10-31T03:24:39;11.50;85.00
64987;DHT22;67903;52.108;9.358;2023-10-31T03:27:25;11.40;84.30
64987;DHT22;67903;52.108;9.358;2023-10-31T03:30:11;11.40;84.10
64987;DHT22;67903;52.108;9.358;2023-10-31T03:32:56;11.40;84.20
64987;DHT22;67903;52.108;9.358;2023-10-31T03:35:43;11.40;84.30
64987;DHT22;67903;52.108;9.358;2023-10-31T03:38:28;11.30;84.50
64987;DHT22;67903;52.108;9.358;2023-10-31T03:41:14;11.30;84.40
64987;DHT22;67903;52.108;9.358;2023-10-31T03:44:00;11.20;84.10
64987;DHT22;67903;52.108;9.358;2023-10-31T03:46:46;11.30;83.70
64987;DHT22;67903;52.108;9.358;2023-10-31T03:49:31;11.20;82.60
64987;DHT22;67903;52.108;9.358;2023-10-31T03:52:17;11.20;82.40
64987;DHT22;67903;52.108;9.358;2023-10-31T03:55:04;11.10;82.30
64987;DHT22;67903;52.108;9.358;2023-10-31T03:57:49;11.10;82.50
64987;DHT22;67903;52.108;9.358;2023-10-31T04:00:35;11.10;82.10
64987;DHT22;67903;52.108;9.358;2023-10-31T04:03:21;11.10;81.60
64987;DHT22;67903;52.108;9.358;2023-10-31T04:06:07;11.10;81.60
64987;DHT22;67903;52.108;9.358;2023-10-31T04:08:54;11.10;81.30
64987;DHT22;67903;52.108;9.358;2023-10-31T04:11:40;11.10;80.70
64987;DHT22;67903;52.108;9.358;2023-10-31T04:14:26;11.10;79.90
64987;DHT22;67903;52.108;9.358;2023-10-31T04:17:12;11.10;80.10
64987;DHT22;67903;52.108;9.358;2023-10-31T04:19:57;11.10;79.10
64987;DHT22;67903;52.108;9.358;2023-10-31T04:22:43;11.10;78.90
64987;DHT22;67903;52.108;9.358;2023-10-31T04:25:28;11.00;79.00
64987;DHT22;67903;52.108;9.358;2023-10-31T04:28:14;11.00;79.50
64987;DHT22;67903;52.108;9.358;2023-10-31T04:31:00;11.00;79.30
64987;DHT22;67903;52.108;9.358;2023-10-31T04:33:46;11.00;79.00
64987;DHT22;67903;52.108;9.358;2023-10-31T04:36:31;11.00;79.40
64987;DHT22;67903;52.108;9.358;2023-10-31T04:39:17;10.90;79.00
64987;DHT22;67903;52.108;9.358;2023-10-31T04:42:03;10.90;76.30
64987;DHT22;67903;52.108;9.358;2023-10-31T04:44:48;10.90;76.60
64987;DHT22;67903;52.108;9.358;2023-10-31T04:47:34;10.80;76.10
64987;DHT22;67903;52.108;9.358;2023-10-31T04:50:19;10.80;76.20
64987;DHT22;67903;52.108;9.358;2023-10-31T04:53:05;10.80;75.80
64987;DHT22;67903;52.108;9.358;2023-10-31T04:55:50;10.80;76.00
64987;DHT22;67903;52.108;9.358;2023-10-31T04:58:36;10.80;76.20
64987;DHT22;67903;52.108;9.358;2023-10-31T05:01:22;10.80;76.50
64987;DHT22;67903;52.108;9.358;2023-10-31T05:04:07;10.80;76.10
64987;DHT22;67903;52.108;9.358;2023-10-31T05:06:57;10.80;76.90
64987;DHT22;67903;52.108;9.358;2023-10-31T05:09:43;10.80;77.60
64987;DHT22;67903;52.108;9.358;2023-10-31T05:12:31;10.80;77.90
64987;DHT22;67903;52.108;9.358;2023-10-31T05:15:17;10.70;78.60
64987;DHT22;67903;52.108;9.358;2023-10-31T05:18:02;10.80;78.40
64987;DHT22;67903;52.108;9.358;2023-10-31T05:20:48;10.70;78.40
64987;DHT22;67903;52.108;9.358;2023-10-31T05:23:33;10.70;79.00
64987;DHT22;67903;52.108;9.358;2023-10-31T05:26:19;10.70;78.70
64987;DHT22;67903;52.108;9.358;2023-10-31T05:29:04;10.60;79.40
64987;DHT22;67903;52.108;9.358;2023-10-31T05:31:50;10.60;78.50
64987;DHT22;67903;52.108;9.358;2023-10-31T05:34:36;10.60;78.40
64987;DHT22;67903;52.108;9.358;2023-10-31T05:37:21;10.60;78.70
64987;DHT22;67903;52.108;9.358;2023-10-31T05:40:07;10.50;79.00
64987;DHT22;67903;52.108;9.358;2023-10-31T05:42:53;10.50;78.50
64987;DHT22;67903;52.108;9.358;2023-10-31T05:45:38;10.50;78.70
64987;DHT22;67903;52.108;9.358;2023-10-31T05:48:24;10.50;78.90
64987;DHT22;67903;52.108;9.358;2023-10-31T05:51:14;10.50;78.60
64987;DHT22;67903;52.108;9.358;2023-10-31T05:54:00;10.50;78.40
64987;DHT22;67903;52.108;9.358;2023-10-31T05:56:45;10.40;79.20
64987;DHT22;67903;52.108;9.358;2023-10-31T05:59:31;10.40;79.30
64987;DHT22;67903;52.108;9.358;2023-10-31T06:02:17;10.30;79.40
64987;DHT22;67903;52.108;9.358;2023-10-31T06:05:03;10.40;79.20
64987;DHT22;67903;52.108;9.358;2023-10-31T06:07:49;10.30;79.70
64987;DHT22;67903;52.108;9.358;2023-10-31T06:10:35;10.40;79.60
64987;DHT22;67903;52.108;9.358;2023-10-31T06:13:20;10.30;79.70
64987;DHT22;67903;52.108;9.358;2023-10-31T06:16:06;10.30;79.50
64987;DHT22;67903;52.108;9.358;2023-10-31T06:18:52;10.30;79.80
64987;DHT22;67903;52.108;9.358;2023-10-31T06:21:38;10.40;79.80
64987;DHT22;67903;52.108;9.358;2023-10-31T06:24:23;10.40;79.60
64987;DHT22;67903;52.108;9.358;2023-10-31T06:27:09;10.40;79.50
64987;DHT22;67903;52.108;9.358;2023-10-31T06:29:54;10.40;80.00
64987;DHT22;67903;52.108;9.358;2023-10-31T06:32:44;10.40;80.10
64987;DHT22;67903;52.108;9.358;2023-10-31T06:35:30;10.40;80.40
64987;DHT22;67903;52.108;9.358;2023-10-31T06:38:15;10.40;81.00
64987;DHT22;67903;52.108;9.358;2023-10-31T06:41:01;10.40;81.70
64987;DHT22;67903;52.108;9.358;2023-10-31T06:43:46;10.30;82.20
64987;DHT22;67903;52.108;9.358;2023-10-31T06:46:32;10.30;82.60
64987;DHT22;67903;52.108;9.358;2023-10-31T06:49:17;10.30;82.90
64987;DHT22;67903;52.108;9.358;2023-10-31T06:52:05;10.30;83.20
64987;DHT22;67903;52.108;9.358;2023-10-31T06:54:50;10.30;83.30
64987;DHT22;67903;52.108;9.358;2023-10-31T06:57:35;10.40;83.40
64987;DHT22;67903;52.108;9.358;2023-10-31T07:00:21;10.40;83.20
64987;DHT22;67903;52.108;9.358;2023-10-31T07:03:07;10.40;83.30
64987;DHT22;67903;52.108;9.358;2023-10-31T07:05:54;10.50;82.90
64987;DHT22;67903;52.108;9.358;2023-10-31T07:08:41;10.50;82.60
64987;DHT22;67903;52.108;9.358;2023-10-31T07:11:27;10.60;82.60
64987;DHT22;67903;52.108;9.358;2023-10-31T07:14:13;10.60;82.40
64987;DHT22;67903;52.108;9.358;2023-10-31T07:16:59;10.60;82.20
64987;DHT22;67903;52.108;9.358;2023-10-31T07:19:45;10.70;82.20
64987;DHT22;67903;52.108;9.358;2023-10-31T07:22:30;10.70;81.50
64987;DHT22;67903;52.108;9.358;2023-10-31T07:25:16;10.80;81.20
64987;DHT22;67903;52.108;9.358;2023-10-31T07:28:02;10.80;81.20
64987;DHT22;67903;52.108;9.358;2023-10-31T07:30:48;10.80;81.30
64987;DHT22;67903;52.108;9.358;2023-10-31T07:33:35;10.90;80.90
64987;DHT22;67903;52.108;9.358;2023-10-31T07:36:21;10.80;81.50
64987;DHT22;67903;52.108;9.358;2023-10-31T07:39:06;10.80;82.20
64987;DHT22;67903;52.108;9.358;2023-10-31T07:41:52;10.80;82.40
64987;DHT22;67903;52.108;9.358;2023-10-31T07:44:38;10.70;82.80
64987;DHT22;67903;52.108;9.358;2023-10-31T07:47:24;10.80;82.80
64987;DHT22;67903;52.108;9.358;2023-10-31T07:50:10;10.70;83.90
64987;DHT22;67903;52.108;9.358;2023-10-31T07:52:55;10.60;85.10
64987;DHT22;67903;52.108;9.358;2023-10-31T07:55:41;10.50;86.80
64987;DHT22;67903;52.108;9.358;2023-10-31T07:58:26;10.50;87.20
64987;DHT22;67903;52.108;9.358;2023-10-31T08:01:12;10.40;88.10
64987;DHT22;67903;52.108;9.358;2023-10-31T08:03:58;10.30;89.40
64987;DHT22;67903;52.108;9.358;2023-10-31T08:06:44;10.20;90.40
64987;DHT22;67903;52.108;9.358;2023-10-31T08:09:30;10.10;92.40
64987;DHT22;67903;52.108;9.358;2023-10-31T08:12:15;10.00;94.30
64987;DHT22;67903;52.108;9.358;2023-10-31T08:15:02;9.60;99.50
64987;DHT22;67903;52.108;9.358;2023-10-31T08:17:47;9.50;99.90
64987;DHT22;67903;52.108;9.358;2023-10-31T08:20:33;9.60;99.90
64987;DHT22;67903;52.108;9.358;2023-10-31T08:23:19;9.70;99.90
64987;DHT22;67903;52.108;9.358;2023-10-31T08:26:04;9.80;98.20
64987;DHT22;67903;52.108;9.358;2023-10-31T08:28:50;9.90;94.60
64987;DHT22;67903;52.108;9.358;2023-10-31T08:31:37;10.00;92.80
64987;DHT22;67903;52.108;9.358;2023-10-31T08:34:23;10.10;91.00
64987;DHT22;67903;52.108;9.358;2023-10-31T08:37:09;10.20;88.80
64987;DHT22;67903;52.108;9.358;2023-10-31T08:39:55;10.20;87.60
64987;DHT22;67903;52.108;9.358;2023-10-31T08:42:40;10.30;87.50
64987;DHT22;67903;52.108;9.358;2023-10-31T08:45:27;10.50;87.40
64987;DHT22;67903;52.108;9.358;2023-10-31T08:48:12;10.50;86.30
64987;DHT22;67903;52.108;9.358;2023-10-31T08:50:58;10.50;85.10
64987;DHT22;67903;52.108;9.358;2023-10-31T08:53:43;10.60;84.70
64987;DHT22;67903;52.108;9.358;2023-10-31T08:56:29;10.60;81.90
64987;DHT22;67903;52.108;9.358;2023-10-31T08:59:15;10.60;82.20
64987;DHT22;67903;52.108;9.358;2023-10-31T09:02:02;10.70;81.10
64987;DHT22;67903;52.108;9.358;2023-10-31T09:04:47;10.80;82.30
64987;DHT22;67903;52.108;9.358;2023-10-31T09:07:33;10.90;79.80
64987;DHT22;67903;52.108;9.358;2023-10-31T09:10:19;10.90;81.20
64987;DHT22;67903;52.108;9.358;2023-10-31T09:13:04;11.10;80.00
64987;DHT22;67903;52.108;9.358;2023-10-31T09:15:50;11.10;79.30
64987;DHT22;67903;52.108;9.358;2023-10-31T09:18:36;11.00;79.30
64987;DHT22;67903;52.108;9.358;2023-10-31T09:21:21;11.10;79.00
64987;DHT22;67903;52.108;9.358;2023-10-31T09:24:08;11.10;78.30
64987;DHT22;67903;52.108;9.358;2023-10-31T09:26:53;11.10;78.80
64987;DHT22;67903;52.108;9.358;2023-10-31T09:29:39;11.00;77.70
64987;DHT22;67903;52.108;9.358;2023-10-31T09:32:24;11.00;78.80
64987;DHT22;67903;52.108;9.358;2023-10-31T09:35:10;11.00;78.70
64987;DHT22;67903;52.108;9.358;2023-10-31T09:37:56;11.00;78.80
64987;DHT22;67903;52.108;9.358;2023-10-31T09:40:43;11.00;78.00
64987;DHT22;67903;52.108;9.358;2023-10-31T09:43:28;11.00;78.00
64987;DHT22;67903;52.108;9.358;2023-10-31T09:46:14;11.10;77.20
64987;DHT22;67903;52.108;9.358;2023-10-31T09:49:01;11.20;77.50
64987;DHT22;67903;52.108;9.358;2023-10-31T09:51:46;11.10;77.10
64987;DHT22;67903;52.108;9.358;2023-10-31T09:54:33;11.10;76.80
64987;DHT22;67903;52.108;9.358;2023-10-31T09:57:19;11.10;77.10
64987;DHT22;67903;52.108;9.358;2023-10-31T10:00:05;11.10;76.50
64987;DHT22;67903;52.108;9.358;2023-10-31T10:02:57;11.20;76.80
64987;DHT22;67903;52.108;9.358;2023-10-31T10:05:44;11.30;76.50
64987;DHT22;67903;52.108;9.358;2023-10-31T10:08:30;11.30;76.50
64987;DHT22;67903;52.108;9.358;2023-10-31T10:11:16;11.40;76.50
64987;DHT22;67903;52.108;9.358;2023-10-31T10:14:02;11.30;76.50
64987;DHT22;67903;52.108;9.358;2023-10-31T10:16:48;11.50;76.30
64987;DHT22;67903;52.108;9.358;2023-10-31T10:19:33;11.50;75.80
64987;DHT22;67903;52.108;9.358;2023-10-31T10:22:20;11.70;76.00
64987;DHT22;67903;52.108;9.358;2023-10-31T10:25:06;11.70;75.50
64987;DHT22;67903;52.108;9.358;2023-10-31T10:27:52;11.70;75.20
64987;DHT22;67903;52.108;9.358;2023-10-31T10:30:38;11.70;75.60
64987;DHT22;67903;52.108;9.358;2023-10-31T10:33:23;11.70;75.70
64987;DHT22;67903;52.108;9.358;2023-10-31T10:36:10;11.70;75.80
64987;DHT22;67903;52.108;9.358;2023-10-31T10:38:57;11.70;75.70
64987;DHT22;67903;52.108;9.358;2023-10-31T10:41:47;11.90;75.10
64987;DHT22;67903;52.108;9.358;2023-10-31T10:44:37;11.90;74.70
64987;DHT22;67903;52.108;9.358;2023-10-31T10:47:24;11.90;74.50
64987;DHT22;67903;52.108;9.358;2023-10-31T10:50:12;11.90;74.30
64987;DHT22;67903;52.108;9.358;2023-10-31T10:53:19;12.00;74.20
64987;DHT22;67903;52.108;9.358;2023-10-31T10:56:13;12.00;74.80
64987;DHT22;67903;52.108;9.358;2023-10-31T10:59:21;12.00;74.70
64987;DHT22;67903;52.108;9.358;2023-10-31T11:02:11;11.90;75.70
64987;DHT22;67903;52.108;9.358;2023-10-31T11:04:58;11.90;75.70
64987;DHT22;67903;52.108;9.358;2023-10-31T11:07:44;11.80;76.60
64987;DHT22;67903;52.108;9.358;2023-10-31T11:10:31;11.70;78.00
64987;DHT22;67903;52.108;9.358;2023-10-31T11:13:17;11.70;79.30
64987;DHT22;67903;52.108;9.358;2023-10-31T11:16:09;11.40;80.40
64987;DHT22;67903;52.108;9.358;2023-10-31T11:18:57;11.30;81.20
64987;DHT22;67903;52.108;9.358;2023-10-31T11:21:59;11.10;82.90
64987;DHT22;67903;52.108;9.358;2023-10-31T11:24:45;11.10;83.40
64987;DHT22;67903;52.108;9.358;2023-10-31T11:27:34;11.10;82.50
64987;DHT22;67903;52.108;9.358;2023-10-31T11:30:29;11.10;83.20
64987;DHT22;67903;52.108;9.358;2023-10-31T11:33:21;11.10;83.70
64987;DHT22;67903;52.108;9.358;2023-10-31T11:36:10;11.10;83.50
64987;DHT22;67903;52.108;9.358;2023-10-31T11:39:13;11.00;83.90
64987;DHT22;67903;52.108;9.358;2023-10-31T11:41:59;11.00;84.00
64987;DHT22;67903;52.108;9.358;2023-10-31T11:44:55;10.90;84.70
64987;DHT22;67903;52.108;9.358;2023-10-31T11:47:48;10.90;85.10
64987;DHT22;67903;52.108;9.358;2023-10-31T11:50:34;10.90;85.70
64987;DHT22;67903;52.108;9.358;2023-10-31T11:53:20;10.90;86.10
64987;DHT22;67903;52.108;9.358;2023-10-31T11:56:10;10.90;86.20
64987;DHT22;67903;52.108;9.358;2023-10-31T11:59:03;11.00;85.80
64987;DHT22;67903;52.108;9.358;2023-10-31T12:01:49;11.00;85.30
64987;DHT22;67903;52.108;9.358;2023-10-31T12:04:35;10.90;85.70
64987;DHT22;67903;52.108;9.358;2023-10-31T12:07:20;11.00;84.80
64987;DHT22;67903;52.108;9.358;2023-10-31T12:10:06;11.10;84.00
64987;DHT22;67903;52.108;9.358;2023-10-31T12:12:52;11.10;83.10
64987;DHT22;67903;52.108;9.358;2023-10-31T12:15:38;11.10;82.80
64987;DHT22;67903;52.108;9.358;2023-10-31T12:18:24;11.20;82.40
64987;DHT22;67903;52.108;9.358;2023-10-31T12:21:09;11.30;81.60
64987;DHT22;67903;52.108;9.358;2023-10-31T12:24:04;11.40;81.40
64987;DHT22;67903;52.108;9.358;2023-10-31T12:26:50;11.40;81.10
64987;DHT22;67903;52.108;9.358;2023-10-31T12:29:37;11.50;81.20
64987;DHT22;67903;52.108;9.358;2023-10-31T12:32:23;11.50;80.50
64987;DHT22;67903;52.108;9.358;2023-10-31T12:35:14;11.60;80.20
64987;DHT22;67903;52.108;9.358;2023-10-31T12:38:03;11.70;80.00
64987;DHT22;67903;52.108;9.358;2023-10-31T12:40:48;11.70;80.10
64987;DHT22;67903;52.108;9.358;2023-10-31T12:43:34;11.70;79.80
64987;DHT22;67903;52.108;9.358;2023-10-31T12:46:30;11.50;80.80
64987;DHT22;67903;52.108;9.358;2023-10-31T12:49:20;11.50;80.20
64987;DHT22;67903;52.108;9.358;2023-10-31T12:52:05;11.50;79.90
64987;DHT22;67903;52.108;9.358;2023-10-31T12:54:51;11.60;80.20
64987;DHT22;67903;52.108;9.358;2023-10-31T12:57:36;11.70;79.30
64987;DHT22;67903;52.108;9.358;2023-10-31T13:00:30;11.70;79.80
64987;DHT22;67903;52.108;9.358;2023-10-31T13:03:16;11.70;79.60
64987;DHT22;67903;52.108;9.358;2023-10-31T13:06:14;11.70;79.60
64987;DHT22;67903;52.108;9.358;2023-10-31T13:09:00;11.70;79.30
64987;DHT22;67903;52.108;9.358;2023-10-31T13:11:47;11.90;78.20
64987;DHT22;67903;52.108;9.358;2023-10-31T13:14:33;11.90;79.00
64987;DHT22;67903;52.108;9.358;2023-10-31T13:17:21;11.80;78.80
64987;DHT22;67903;52.108;9.358;2023-10-31T13:20:07;11.70;79.40
64987;DHT22;67903;52.108;9.358;2023-10-31T13:22:54;11.70;79.60
64987;DHT22;67903;52.108;9.358;2023-10-31T13:25:40;11.70;79.30
64987;DHT22;67903;52.108;9.358;2023-10-31T13:28:25;11.60;79.30
64987;DHT22;67903;52.108;9.358;2023-10-31T13:31:11;11.50;79.50
64987;DHT22;67903;52.108;9.358;2023-10-31T13:33:58;11.50;79.80
64987;DHT22;67903;52.108;9.358;2023-10-31T13:36:43;11.70;79.00
64987;DHT22;67903;52.108;9.358;2023-10-31T13:39:30;11.60;78.90
64987;DHT22;67903;52.108;9.358;2023-10-31T13:42:16;11.60;79.50
64987;DHT22;67903;52.108;9.358;2023-10-31T13:45:03;11.60;79.10
64987;DHT22;67903;52.108;9.358;2023-10-31T13:47:51;11.70;79.60
64987;DHT22;67903;52.108;9.358;2023-10-31T13:50:37;11.70;79.50
64987;DHT22;67903;52.108;9.358;2023-10-31T13:53:23;11.70;78.90
64987;DHT22;67903;52.108;9.358;2023-10-31T13:56:09;11.80;77.70
64987;DHT22;67903;52.108;9.358;2023-10-31T13:58:54;11.90;77.10
64987;DHT22;67903;52.108;9.358;2023-10-31T14:01:40;11.90;77.00
64987;DHT22;67903;52.108;9.358;2023-10-31T14:04:26;11.90;77.30
64987;DHT22;67903;52.108;9.358;2023-10-31T14:07:19;12.00;77.20
64987;DHT22;67903;52.108;9.358;2023-10-31T14:10:05;11.90;77.60
64987;DHT22;67903;52.108;9.358;2023-10-31T14:12:51;12.00;78.00
64987;DHT22;67903;52.108;9.358;2023-10-31T14:15:38;12.10;77.80
64987;DHT22;67903;52.108;9.358;2023-10-31T14:18:23;12.00;77.80
64987;DHT22;67903;52.108;9.358;2023-10-31T14:21:09;12.00;78.20
64987;DHT22;67903;52.108;9.358;2023-10-31T14:23:54;12.00;78.10
64987;DHT22;67903;52.108;9.358;2023-10-31T14:26:49;12.00;78.20
64987;DHT22;67903;52.108;9.358;2023-10-31T14:29:35;12.00;77.90
64987;DHT22;67903;52.108;9.358;2023-10-31T14:32:21;12.00;77.70
64987;DHT22;67903;52.108;9.358;2023-10-31T14:35:07;12.00;77.70
64987;DHT22;67903;52.108;9.358;2023-10-31T14:37:54;12.00;78.00
64987;DHT22;67903;52.108;9.358;2023-10-31T14:40:39;11.90;78.60
64987;DHT22;67903;52.108;9.358;2023-10-31T14:43:25;11.90;78.20
64987;DHT22;67903;52.108;9.358;2023-10-31T14:46:11;11.90;78.70
64987;DHT22;67903;52.108;9.358;2023-10-31T14:48:57;11.90;78.60
64987;DHT22;67903;52.108;9.358;2023-10-31T14:51:42;11.70;79.10
64987;DHT22;67903;52.108;9.358;2023-10-31T14:54:28;11.70;79.20
64987;DHT22;67903;52.108;9.358;2023-10-31T14:57:15;11.70;78.40
64987;DHT22;67903;52.108;9.358;2023-10-31T15:00:00;11.60;79.20
64987;DHT22;67903;52.108;9.358;2023-10-31T15:02:46;11.50;79.60
64987;DHT22;67903;52.108;9.358;2023-10-31T15:05:32;11.50;80.00
64987;DHT22;67903;52.108;9.358;2023-10-31T15:08:17;11.50;80.40
64987;DHT22;67903;52.108;9.358;2023-10-31T15:11:04;11.50;80.70
64987;DHT22;67903;52.108;9.358;2023-10-31T15:13:49;11.40;80.90
64987;DHT22;67903;52.108;9.358;2023-10-31T15:16:35;11.40;81.20
64987;DHT22;67903;52.108;9.358;2023-10-31T15:19:21;11.40;81.00
64987;DHT22;67903;52.108;9.358;2023-10-31T15:22:07;11.40;80.50
64987;DHT22;67903;52.108;9.358;2023-10-31T15:24:52;11.40;81.10
64987;DHT22;67903;52.108;9.358;2023-10-31T15:27:38;11.40;80.70
64987;DHT22;67903;52.108;9.358;2023-10-31T15:30:26;11.30;81.40
64987;DHT22;67903;52.108;9.358;2023-10-31T15:33:12;11.30;81.80
64987;DHT22;67903;52.108;9.358;2023-10-31T15:35:58;11.30;81.50
64987;DHT22;67903;52.108;9.358;2023-10-31T15:38:43;11.30;81.70
64987;DHT22;67903;52.108;9.358;2023-10-31T15:41:29;11.30;81.90
64987;DHT22;67903;52.108;9.358;2023-10-31T15:44:14;11.40;81.60
64987;DHT22;67903;52.108;9.358;2023-10-31T15:47:00;11.30;81.40
64987;DHT22;67903;52.108;9.358;2023-10-31T15:49:45;11.30;81.80
64987;DHT22;67903;52.108;9.358;2023-10-31T15:52:31;11.30;82.40
64987;DHT22;67903;52.108;9.358;2023-10-31T15:55:17;11.20;82.50
64987;DHT22;67903;52.108;9.358;2023-10-31T15:58:03;11.30;82.30
64987;DHT22;67903;52.108;9.358;2023-10-31T16:00:48;11.40;82.20
64987;DHT22;67903;52.108;9.358;2023-10-31T16:03:34;11.30;82.60
64987;DHT22;67903;52.108;9.358;2023-10-31T16:06:20;11.30;83.20
64987;DHT22;67903;52.108;9.358;2023-10-31T16:09:06;11.10;84.80
64987;DHT22;67903;52.108;9.358;2023-10-31T16:11:51;11.00;86.40
64987;DHT22;67903;52.108;9.358;2023-10-31T16:14:36;10.90;87.30
64987;DHT22;67903;52.108;9.358;2023-10-31T16:17:22;10.90;87.80
64987;DHT22;67903;52.108;9.358;2023-10-31T16:20:08;10.80;88.10
64987;DHT22;67903;52.108;9.358;2023-10-31T16:22:54;10.90;87.90
64987;DHT22;67903;52.108;9.358;2023-10-31T16:25:39;10.90;87.80
64987;DHT22;67903;52.108;9.358;2023-10-31T16:28:24;10.90;87.80
64987;DHT22;67903;52.108;9.358;2023-10-31T16:31:10;10.90;87.40
64987;DHT22;67903;52.108;9.358;2023-10-31T16:33:58;10.90;87.50
64987;DHT22;67903;52.108;9.358;2023-10-31T16:36:43;11.00;87.50
64987;DHT22;67903;52.108;9.358;2023-10-31T16:39:29;10.90;88.10
64987;DHT22;67903;52.108;9.358;2023-10-31T16:42:16;10.80;88.80
64987;DHT22;67903;52.108;9.358;2023-10-31T16:45:01;10.70;89.60
64987;DHT22;67903;52.108;9.358;2023-10-31T16:47:51;10.70;89.50
64987;DHT22;67903;52.108;9.358;2023-10-31T16:50:37;10.70;89.90
64987;DHT22;67903;52.108;9.358;2023-10-31T16:53:22;10.70;89.90
64987;DHT22;67903;52.108;9.358;2023-10-31T16:56:09;10.60;90.00
64987;DHT22;67903;52.108;9.358;2023-10-31T16:58:55;10.60;90.50
64987;DHT22;67903;52.108;9.358;2023-10-31T17:01:40;10.60;90.10
64987;DHT22;67903;52.108;9.358;2023-10-31T17:04:27;10.60;89.80
64987;DHT22;67903;52.108;9.358;2023-10-31T17:07:12;10.80;88.20
64987;DHT22;67903;52.108;9.358;2023-10-31T17:09:58;10.90;88.20
64987;DHT22;67903;52.108;9.358;2023-10-31T17:12:43;10.90;87.80
64987;DHT22;67903;52.108;9.358;2023-10-31T17:15:29;10.90;87.90
64987;DHT22;67903;52.108;9.358;2023-10-31T17:18:15;10.90;87.60
64987;DHT22;67903;52.108;9.358;2023-10-31T17:21:04;10.80;87.80
64987;DHT22;67903;52.108;9.358;2023-10-31T17:23:50;10.90;87.50
64987;DHT22;67903;52.108;9.358;2023-10-31T17:26:35;11.00;86.00
64987;DHT22;67903;52.108;9.358;2023-10-31T17:29:21;11.00;84.80
64987;DHT22;67903;52.108;9.358;2023-10-31T17:32:07;11.10;84.90